Terminal Aerodrome Forecast
Issued by NWS

Home | Current Version | Previous Version | Text Only | Print | Product List | Glossary On
Versions: 1 2 3 4 5 6 7 8 9 10 11 12
000
FTUS46 KSEW 061720
TAFPAE
TAF
KPAE 061720Z 0618/0718 25005KT P6SM SCT200
     FM071300 18006KT P6SM SCT005 SCT200
     FM071700 25005KT P6SM SCT200=

USA.gov is the U.S. government's official web portal to all federal, state and local government web resources and services.